Beaverton, OR

5:00 PM PDT en Octubre 21, 2014 (GMT -0700)
Walker/217 | Change Station
CLOSE
Current Station
Estación meteorológica personal
Location: Beaverton, OR
Altura: 223 ft
Estaciones meteorológicas cercanas
Aviso en curso: Special Statement

Alt 223 ft 45.50 °N, 122.79 °W | Updated 15 seconds ago

Nublado
Nublado
59.4 ° F
Sensación térmica 59.4 ° F
N
0.0
Viento Variable Viento desde NNO
Gusts 0.7 mph

Hoy
Alta -- | Baja -- ° F
--% Posibilidad de precipitaciones
Ayer
Alta -- | Baja -- ° F
Precip. -- pul
7:35 AM 6:15 PM
Creciente menguante, 4% visible
Presión 29.94 pul
Visibilidad 10.0 Millas
Nubes Muy nublado 4700 ft
Nublado 5500 ft
Punto de rocío 52 ° F
Humedad 77%
Precipitaciones 0.02 pul
Espesor de la nieve No disponible.
UV 0 de una escala de 12
Polen 1.10 de una escala de 12
Ozono Buena
PM2.5 Buena
Flu Activity Sporadic
METAR KHIO 212353Z 17009KT 10SM BKN047 OVC055 14/11 A2993 RMK AO2 SLP136 60000 T01440111 10156 20133 58013

More Conditions Fewer Conditions

Presión 29.94 pul
Visibilidad 10.0 Millas
Nubes Muy nublado 4700 ft
Nublado 5500 ft
Punto de rocío 52 ° F
Humedad 77%
Precipitaciones 0.02 pul
Espesor de la nieve No disponible.
UV 0 de una escala de 12
Polen 1.10 de una escala de 12
Ozono Buena
PM2.5 Buena
Flu Activity Sporadic
METAR KHIO 212353Z 17009KT 10SM BKN047 OVC055 14/11 A2993 RMK AO2 SLP136 60000 T01440111 10156 20133 58013

More Conditions Fewer Conditions

10-Day Weather Forecast

Almanac

Astronomía

Oct. 21, 2014 Salida Puesta
Hora real 7:35 AM PDT 6:15 PM PDT
Crepúsculo civil 7:05 AM PDT 6:45 PM PDT
Crepúsculo náutico 6:30 AM PDT 7:19 PM PDT
Crepúsculo astronómico 5:56 AM PDT 7:54 PM PDT
Luna 5:19 AM PDT (10/21) 5:16 PM PDT (10/21)
Horas de luz 11h 39m
Horas de luz
10h 39m
Tomorrow will be 3m 0s shorter.
Creciente menguante, 4% of the Moon is Illuminated
Hoy
Creciente menguante
Oct 23
Nueva
Oct 30
Cuarto creciente
Nov 6
Luna llena
Nov 14
Cuarto menguante

Extremos de hoy

Máximos del estado Bajos del estado

Community

WunderPhotos

Upload Photos

1,763,824 ¡fotos cargadas!

Nearby

Calidad del aire

  Calidad del aire Índice AQ Contaminante
Ayer Buena
OZONE
Ayer Buena
PM2.5
Real Buena
OZONE
Real Buena
PM2.5
Martes Buena
PM2.5
Miércoles Buena
PM2.5

Grosos de nieve

Estación Profundido Altura
Seine Creek 0 in 2000 ft
North Fork 0 in 3120 ft
Peavine Ridge 0 in 3500 ft
Red Hill 0 in 4400 ft
Greenpoint 0 in 3200 ft

Actividad de terremotos

Ciudad Distance Mag. Tiempo y dato
No hay informes recientes de la actividad sísmica.
Magnitud mínima muestra es 2,5.

Temperaturas de aguas costeras

Lugar Temperatura
Sin partes meteorológicos de las estaciones

Estaciones meteorológicas cercanas